createdAt,value
2022-09-20T00:01:13.721Z,8.96
2022-09-20T00:03:42.743Z,8.90
2022-09-20T00:06:14.348Z,8.88
2022-09-20T00:08:41.525Z,8.87
2022-09-20T00:11:11.795Z,8.93
2022-09-20T00:13:39.692Z,8.96
2022-09-20T00:16:08.896Z,8.88
2022-09-20T00:18:35.852Z,8.86
2022-09-20T00:21:03.306Z,8.85
2022-09-20T00:23:32.320Z,8.86
2022-09-20T00:26:02.517Z,8.82
2022-09-20T00:28:29.744Z,8.96
2022-09-20T00:31:07.100Z,8.97
2022-09-20T00:34:12.872Z,8.97
2022-09-20T00:36:39.437Z,9.09
2022-09-20T00:39:06.230Z,9.12
2022-09-20T00:41:33.480Z,9.17
2022-09-20T00:44:00.583Z,9.28
2022-09-20T00:46:36.326Z,9.29
2022-09-20T00:49:12.252Z,9.30
2022-09-20T00:51:41.500Z,9.34
2022-09-20T00:54:14.795Z,9.16
2022-09-20T00:56:44.078Z,9.01
2022-09-20T00:59:22.876Z,9.01
2022-09-20T01:01:53.247Z,8.94
2022-09-20T01:04:22.877Z,8.88
2022-09-20T01:06:53.072Z,8.98
2022-09-20T01:09:19.622Z,8.89
2022-09-20T01:11:46.514Z,8.79
2022-09-20T01:14:14.972Z,8.79
2022-09-20T01:16:47.744Z,8.80
2022-09-20T01:19:28.681Z,8.82
2022-09-20T01:21:55.399Z,8.91
2022-09-20T01:24:42.177Z,8.87
2022-09-20T01:27:11.816Z,8.90
2022-09-20T01:29:47.582Z,8.82
2022-09-20T01:32:17.007Z,8.86
2022-09-20T01:34:48.380Z,8.86
2022-09-20T01:37:18.347Z,8.87
2022-09-20T01:40:10.688Z,8.86
2022-09-20T01:42:48.113Z,8.77
2022-09-20T01:45:28.419Z,8.74
2022-09-20T01:48:01.174Z,8.79
2022-09-20T01:50:45.451Z,8.67
2022-09-20T01:53:33.958Z,8.71
2022-09-20T01:56:27.891Z,8.63
2022-09-20T01:59:23.048Z,8.64
2022-09-20T02:01:54.411Z,8.62
2022-09-20T02:04:33.386Z,8.70
2022-09-20T02:07:39.021Z,8.69
2022-09-20T02:10:42.901Z,8.68
2022-09-20T02:13:11.861Z,8.69
2022-09-20T02:15:57.410Z,8.64
2022-09-20T02:18:36.167Z,8.72
2022-09-20T02:21:53.496Z,8.67
2022-09-20T02:24:39.385Z,8.65
2022-09-20T02:27:35.867Z,8.64
2022-09-20T02:30:29.053Z,8.58
2022-09-20T02:33:13.781Z,8.52
2022-09-20T02:35:53.059Z,8.51
2022-09-20T02:38:28.617Z,8.45
2022-09-20T02:41:01.902Z,8.39
2022-09-20T02:43:36.791Z,8.40
2022-09-20T02:46:17.735Z,8.43
2022-09-20T02:49:28.697Z,8.48
2022-09-20T02:52:04.876Z,8.41
2022-09-20T02:54:56.457Z,8.43
2022-09-20T02:57:41.878Z,8.45
2022-09-20T03:00:11.443Z,8.49
2022-09-20T03:03:02.657Z,8.48
2022-09-20T03:05:58.224Z,8.48
2022-09-20T03:08:52.632Z,8.51
2022-09-20T03:11:22.425Z,8.52
2022-09-20T03:13:48.996Z,8.58
2022-09-20T03:16:27.795Z,8.50
2022-09-20T03:19:27.175Z,8.53
2022-09-20T03:22:06.082Z,8.54
2022-09-20T03:24:44.060Z,8.53
2022-09-20T03:27:16.795Z,8.55
2022-09-20T03:29:49.547Z,8.50
2022-09-20T03:32:22.011Z,8.48
2022-09-20T03:34:59.553Z,8.49
2022-09-20T03:37:52.015Z,8.40
2022-09-20T03:40:47.007Z,8.36
2022-09-20T03:43:33.790Z,8.37
2022-09-20T03:46:22.527Z,8.35
2022-09-20T03:49:04.449Z,8.37
2022-09-20T03:52:02.007Z,8.38
2022-09-20T03:54:55.162Z,8.42
2022-09-20T03:57:40.182Z,8.41
2022-09-20T04:00:30.336Z,8.29
2022-09-20T04:03:20.878Z,8.20
2022-09-20T04:05:56.526Z,8.15
2022-09-20T04:08:40.286Z,7.99
2022-09-20T04:11:17.661Z,8.05
2022-09-20T04:13:51.101Z,7.99
2022-09-20T04:16:30.066Z,7.97
2022-09-20T04:18:58.221Z,7.88
2022-09-20T04:21:45.614Z,7.87
2022-09-20T04:24:22.102Z,7.86
2022-09-20T04:26:52.506Z,7.81
2022-09-20T04:29:37.819Z,7.70
2022-09-20T04:32:16.050Z,7.72
2022-09-20T04:35:18.495Z,7.92
2022-09-20T04:37:45.416Z,7.88
2022-09-20T04:40:18.036Z,7.84
2022-09-20T04:43:03.135Z,7.89
2022-09-20T04:46:03.846Z,7.86
2022-09-20T04:48:51.703Z,7.83
2022-09-20T04:51:33.445Z,7.84
2022-09-20T04:54:25.419Z,7.78
2022-09-20T04:57:21.920Z,7.75
2022-09-20T05:00:09.307Z,7.74
2022-09-20T05:02:54.218Z,7.76
2022-09-20T05:05:49.218Z,7.79
2022-09-20T05:08:18.721Z,7.83
2022-09-20T05:11:09.703Z,7.75
2022-09-20T05:14:02.415Z,7.69
2022-09-20T05:17:00.733Z,7.76
2022-09-20T05:20:04.541Z,7.81
2022-09-20T05:23:05.623Z,7.87
2022-09-20T05:25:52.071Z,7.90
2022-09-20T05:28:49.649Z,7.97
2022-09-20T05:31:30.836Z,8.00
2022-09-20T05:34:10.171Z,8.01
2022-09-20T05:36:41.838Z,8.01
2022-09-20T05:39:20.487Z,8.06
2022-09-20T05:42:02.748Z,8.15
2022-09-20T05:44:45.249Z,8.24
2022-09-20T05:47:36.855Z,8.43
2022-09-20T05:50:16.628Z,8.60
2022-09-20T05:52:57.850Z,8.74
2022-09-20T05:55:51.811Z,8.94
2022-09-20T05:58:27.323Z,9.28
2022-09-20T06:01:07.497Z,9.45
2022-09-20T06:03:39.735Z,9.55
2022-09-20T06:06:15.038Z,9.55
2022-09-20T06:08:50.951Z,9.93
2022-09-20T06:11:23.573Z,9.90
2022-09-20T06:13:53.514Z,9.97
2022-09-20T06:16:34.421Z,10.07
2022-09-20T06:19:15.163Z,10.16
2022-09-20T06:21:56.086Z,10.04
2022-09-20T06:24:28.541Z,9.92
2022-09-20T06:27:03.088Z,9.76
2022-09-20T06:29:33.305Z,9.77
2022-09-20T06:32:02.529Z,9.80
2022-09-20T06:34:31.193Z,9.87
2022-09-20T06:37:48.854Z,10.01
2022-09-20T06:40:59.421Z,10.10
2022-09-20T06:43:27.802Z,9.89
2022-09-20T06:45:54.423Z,9.83
2022-09-20T06:48:21.034Z,9.93
2022-09-20T06:50:47.629Z,9.90
2022-09-20T06:53:30.158Z,9.81
2022-09-20T06:55:57.606Z,9.88
2022-09-20T06:58:28.719Z,9.94
2022-09-20T07:00:55.440Z,10.01
2022-09-20T07:03:22.035Z,9.97
2022-09-20T07:05:48.645Z,10.07
2022-09-20T07:08:16.574Z,10.21
2022-09-20T07:10:49.523Z,10.06
2022-09-20T07:13:16.140Z,10.18
2022-09-20T07:15:42.897Z,10.20
2022-09-20T07:18:09.544Z,10.28
2022-09-20T07:20:44.698Z,10.26
2022-09-20T07:23:11.298Z,10.19
2022-09-20T07:25:37.956Z,10.35
2022-09-20T07:28:04.576Z,10.45
2022-09-20T07:30:39.134Z,10.38
2022-09-20T07:33:05.715Z,10.53
2022-09-20T07:35:32.254Z,10.62
2022-09-20T07:38:05.035Z,10.82
2022-09-20T07:40:32.090Z,10.99
2022-09-20T07:42:58.695Z,11.03
2022-09-20T07:45:25.740Z,11.07
2022-09-20T07:47:54.594Z,11.20
2022-09-20T07:50:22.718Z,11.13
2022-09-20T07:52:56.264Z,11.18
2022-09-20T07:55:22.819Z,11.26
2022-09-20T07:57:59.274Z,11.62
2022-09-20T08:00:26.599Z,11.72
2022-09-20T08:02:59.184Z,11.67
2022-09-20T08:05:26.284Z,11.54
2022-09-20T08:07:52.983Z,11.65
2022-09-20T08:10:21.282Z,11.57
2022-09-20T08:15:42.113Z,11.14
2022-09-20T08:18:10.038Z,11.20
2022-09-20T08:20:40.067Z,11.49
2022-09-20T08:23:23.442Z,11.98
2022-09-20T08:25:53.354Z,12.41
2022-09-20T08:28:19.957Z,12.29
2022-09-20T08:30:46.561Z,12.29
2022-09-20T08:33:13.169Z,12.09
2022-09-20T08:35:39.731Z,11.96
2022-09-20T08:41:01.737Z,12.11
2022-09-20T08:43:36.868Z,12.22
2022-09-20T08:46:07.776Z,12.22
2022-09-20T08:48:36.762Z,12.39
2022-09-20T08:51:13.579Z,12.26
2022-09-20T08:53:49.108Z,12.59
2022-09-20T08:56:17.068Z,12.84
2022-09-20T08:58:47.662Z,12.71
2022-09-20T09:01:19.873Z,12.36
2022-09-20T09:03:47.484Z,12.75
2022-09-20T09:06:19.845Z,13.08
2022-09-20T09:08:56.091Z,13.09
2022-09-20T09:11:23.486Z,13.29
2022-09-20T09:14:30.148Z,13.97
2022-09-20T09:16:56.974Z,13.11
2022-09-20T09:19:34.326Z,13.20
2022-09-20T09:22:03.796Z,13.20
2022-09-20T09:24:33.303Z,13.21
2022-09-20T09:27:26.457Z,13.21
2022-09-20T09:29:55.103Z,13.45
2022-09-20T09:32:21.918Z,13.73
2022-09-20T09:34:48.513Z,13.79
2022-09-20T09:37:31.032Z,13.63
2022-09-20T09:40:16.903Z,13.44
2022-09-20T09:43:01.423Z,13.42
2022-09-20T09:45:38.594Z,12.69
2022-09-20T09:48:33.660Z,13.12
2022-09-20T09:51:12.452Z,12.85
2022-09-20T09:53:39.472Z,12.26
2022-09-20T09:56:24.333Z,12.45
2022-09-20T09:58:54.868Z,12.36
2022-09-20T10:01:44.087Z,13.07
2022-09-20T10:04:38.757Z,13.29
2022-09-20T10:07:10.157Z,13.05
2022-09-20T10:09:47.043Z,12.87
2022-09-20T10:12:38.717Z,12.73
2022-09-20T10:15:28.817Z,13.03
2022-09-20T10:18:17.269Z,13.32
2022-09-20T10:20:55.820Z,13.22
2022-09-20T10:24:01.445Z,13.40
2022-09-20T10:26:40.261Z,13.02
2022-09-20T10:29:15.593Z,13.11
2022-09-20T10:32:06.421Z,13.22
2022-09-20T10:34:47.493Z,13.46
2022-09-20T10:37:27.479Z,13.81
2022-09-20T10:40:26.051Z,14.02
2022-09-20T10:43:16.226Z,13.90
2022-09-20T10:48:51.877Z,14.19
2022-09-20T10:51:27.671Z,14.46
2022-09-20T10:54:01.079Z,14.24
2022-09-20T10:56:37.278Z,13.85
2022-09-20T10:59:22.488Z,14.28
2022-09-20T11:02:08.262Z,13.74
2022-09-20T11:04:53.527Z,13.55
2022-09-20T11:07:48.503Z,13.27
2022-09-20T11:10:24.264Z,13.29
2022-09-20T11:13:12.967Z,13.16
2022-09-20T11:15:49.711Z,13.20
2022-09-20T11:18:25.664Z,13.12
2022-09-20T11:21:19.253Z,13.03
2022-09-20T11:23:56.762Z,12.93
2022-09-20T11:26:27.959Z,12.90
2022-09-20T11:29:26.916Z,12.84
2022-09-20T11:31:56.293Z,12.81
2022-09-20T11:34:22.844Z,12.95
2022-09-20T11:36:54.552Z,12.98
2022-09-20T11:39:44.031Z,13.17
2022-09-20T11:42:22.464Z,12.93
2022-09-20T11:44:49.897Z,13.18
2022-09-20T11:47:42.847Z,13.24
2022-09-20T11:50:40.211Z,13.32
2022-09-20T11:53:22.173Z,13.16
2022-09-20T11:55:49.722Z,13.06
2022-09-20T11:58:17.021Z,13.16
2022-09-20T12:00:45.287Z,13.41
2022-09-20T12:03:30.170Z,13.79
2022-09-20T12:06:21.978Z,14.27
2022-09-20T12:08:52.833Z,14.34
2022-09-20T12:11:49.071Z,13.93
2022-09-20T12:14:29.239Z,14.12
2022-09-20T12:16:56.866Z,13.70
2022-09-20T12:19:33.253Z,13.99
2022-09-20T12:21:59.758Z,14.24
2022-09-20T12:24:31.016Z,14.45
2022-09-20T12:27:29.262Z,14.69
2022-09-20T12:30:20.057Z,14.38
2022-09-20T12:32:58.102Z,14.53
2022-09-20T12:35:37.073Z,14.26
2022-09-20T12:38:22.086Z,14.24
2022-09-20T12:41:27.616Z,14.31
2022-09-20T12:44:23.097Z,14.46
2022-09-20T12:46:57.327Z,14.53
2022-09-20T12:49:50.787Z,14.41
2022-09-20T12:52:46.117Z,14.57
2022-09-20T12:55:45.718Z,15.02
2022-09-20T12:58:14.246Z,14.53
2022-09-20T13:00:57.727Z,14.55
2022-09-20T13:03:35.274Z,15.16
2022-09-20T13:06:09.588Z,15.71
2022-09-20T13:08:58.102Z,15.18
2022-09-20T13:11:30.314Z,14.99
2022-09-20T13:14:06.136Z,15.09
2022-09-20T13:17:01.120Z,15.56
2022-09-20T13:19:40.837Z,15.34
2022-09-20T13:22:14.245Z,15.04
2022-09-20T13:24:42.734Z,14.93
2022-09-20T13:27:32.100Z,14.80
2022-09-20T13:30:20.063Z,14.57
2022-09-20T13:32:47.609Z,14.10
2022-09-20T13:35:24.062Z,14.22
2022-09-20T13:37:59.176Z,14.13
2022-09-20T13:40:37.076Z,14.18
2022-09-20T13:43:23.139Z,13.90
2022-09-20T13:45:56.278Z,13.64
2022-09-20T13:48:27.463Z,13.39
2022-09-20T13:50:54.994Z,12.83
2022-09-20T13:53:40.497Z,12.73
2022-09-20T13:56:17.955Z,12.42
2022-09-20T13:58:44.656Z,12.13
2022-09-20T14:01:37.616Z,12.14
2022-09-20T14:04:13.443Z,11.63
2022-09-20T14:06:40.440Z,11.43
2022-09-20T14:09:11.377Z,11.20
2022-09-20T14:11:39.206Z,11.28
2022-09-20T14:14:07.142Z,11.28
2022-09-20T14:16:41.111Z,11.36
2022-09-20T14:19:10.456Z,11.48
2022-09-20T14:21:37.454Z,11.62
2022-09-20T14:24:16.482Z,11.55
2022-09-20T14:26:45.999Z,11.74
2022-09-20T14:29:34.487Z,11.63
2022-09-20T14:32:16.733Z,11.72
2022-09-20T14:34:55.937Z,11.76
2022-09-20T14:37:25.813Z,12.07
2022-09-20T14:39:58.885Z,12.07
2022-09-20T14:42:43.021Z,12.08
2022-09-20T14:45:35.400Z,12.05
2022-09-20T14:48:11.634Z,12.08
2022-09-20T14:50:39.625Z,12.37
2022-09-20T14:53:12.367Z,12.62
2022-09-20T14:55:59.900Z,12.27
2022-09-20T14:58:26.607Z,12.33
2022-09-20T15:01:01.324Z,12.45
2022-09-20T15:03:39.067Z,12.28
2022-09-20T15:06:07.058Z,12.45
2022-09-20T15:08:37.112Z,12.30
2022-09-20T15:11:04.267Z,12.25
2022-09-20T15:13:30.959Z,12.17
2022-09-20T15:15:58.288Z,12.10
2022-09-20T15:18:26.690Z,12.12
2022-09-20T15:20:54.730Z,12.03
2022-09-20T15:23:21.864Z,11.98
2022-09-20T15:25:52.776Z,12.07
2022-09-20T15:28:19.806Z,12.04
2022-09-20T15:30:52.527Z,11.78
2022-09-20T15:33:20.457Z,11.87
2022-09-20T15:35:47.902Z,11.91
2022-09-20T15:38:17.072Z,11.91
2022-09-20T15:40:48.149Z,11.75
2022-09-20T15:43:22.335Z,11.69
2022-09-20T15:45:51.586Z,11.81
2022-09-20T15:48:22.162Z,11.91
2022-09-20T15:51:00.450Z,11.94
2022-09-20T15:53:27.369Z,12.03
2022-09-20T15:55:53.979Z,12.00
2022-09-20T15:58:21.610Z,12.16
2022-09-20T16:00:49.556Z,12.16
2022-09-20T16:03:17.454Z,12.15
2022-09-20T16:05:46.584Z,12.16
2022-09-20T16:08:13.117Z,12.04
2022-09-20T16:10:39.945Z,11.93
2022-09-20T16:13:06.554Z,11.84
2022-09-20T16:15:33.290Z,11.67
2022-09-20T16:18:18.487Z,11.55
2022-09-20T16:20:45.268Z,11.49
2022-09-20T16:23:13.843Z,11.48
2022-09-20T16:25:40.431Z,11.43
2022-09-20T16:28:07.005Z,11.35
2022-09-20T16:30:34.382Z,11.35
2022-09-20T16:33:07.794Z,11.33
2022-09-20T16:35:34.359Z,11.21
2022-09-20T16:38:00.945Z,11.12
2022-09-20T16:40:27.596Z,10.97
2022-09-20T16:42:56.073Z,10.87
2022-09-20T16:45:26.868Z,10.73
2022-09-20T16:47:57.291Z,10.56
2022-09-20T16:50:23.928Z,10.46
2022-09-20T16:52:50.558Z,10.33
2022-09-20T16:55:19.578Z,10.21
2022-09-20T16:57:51.984Z,10.10
2022-09-20T17:00:21.856Z,10.01
2022-09-20T17:02:51.186Z,9.90
2022-09-20T17:05:17.770Z,9.84
2022-09-20T17:07:44.622Z,9.76
2022-09-20T17:10:11.301Z,9.81
2022-09-20T17:12:43.566Z,9.74
2022-09-20T17:15:13.033Z,9.68
2022-09-20T17:17:39.979Z,9.62
2022-09-20T17:20:07.782Z,9.57
2022-09-20T17:22:34.503Z,9.60
2022-09-20T17:25:04.083Z,9.53
2022-09-20T17:27:31.844Z,9.50
2022-09-20T17:29:58.466Z,9.41
2022-09-20T17:32:25.156Z,9.46
2022-09-20T17:34:51.892Z,9.34
2022-09-20T17:37:21.971Z,9.33
2022-09-20T17:39:48.762Z,9.29
2022-09-20T17:42:15.384Z,9.26
2022-09-20T17:44:42.084Z,9.25
2022-09-20T17:47:09.144Z,9.30
2022-09-20T17:49:40.699Z,9.34
2022-09-20T17:52:08.362Z,9.34
2022-09-20T17:54:34.944Z,9.29
2022-09-20T17:57:01.565Z,9.35
2022-09-20T17:59:36.611Z,9.34
2022-09-20T18:02:03.429Z,9.31
2022-09-20T18:04:30.030Z,9.30
2022-09-20T18:07:06.844Z,9.30
2022-09-20T18:09:33.486Z,9.26
2022-09-20T18:12:00.138Z,9.19
2022-09-20T18:14:31.386Z,9.11
2022-09-20T18:17:01.165Z,9.10
2022-09-20T18:19:34.030Z,9.19
2022-09-20T18:22:01.705Z,9.22
2022-09-20T18:24:28.279Z,9.29
2022-09-20T18:26:54.881Z,9.34
2022-09-20T18:29:21.493Z,9.34
2022-09-20T18:31:54.289Z,9.42
2022-09-20T18:34:22.925Z,9.48
2022-09-20T18:36:57.173Z,9.54
2022-09-20T18:39:25.516Z,9.50
2022-09-20T18:41:53.298Z,9.45
2022-09-20T18:44:20.561Z,9.45
2022-09-20T18:46:47.250Z,9.36
2022-09-20T18:49:15.048Z,9.30
2022-09-20T18:51:42.759Z,9.22
2022-09-20T18:54:10.590Z,9.20
2022-09-20T18:56:42.174Z,9.11
2022-09-20T18:59:22.810Z,9.04
2022-09-20T19:01:49.536Z,9.11
2022-09-20T19:04:34.433Z,9.09
2022-09-20T19:07:38.928Z,9.00
2022-09-20T19:10:05.463Z,8.93
2022-09-20T19:12:53.246Z,8.85
2022-09-20T19:15:53.073Z,8.81
2022-09-20T19:18:44.538Z,8.74
2022-09-20T19:21:26.408Z,8.70
2022-09-20T19:24:11.323Z,8.60
2022-09-20T19:26:38.741Z,8.57
2022-09-20T19:29:25.265Z,8.49
2022-09-20T19:31:57.531Z,8.47
2022-09-20T19:34:29.535Z,8.42
2022-09-20T19:37:18.723Z,8.40
2022-09-20T19:39:45.376Z,8.38
2022-09-20T19:42:31.971Z,8.34
2022-09-20T19:45:17.991Z,8.30
2022-09-20T19:47:47.196Z,8.22
2022-09-20T19:50:28.026Z,8.14
2022-09-20T19:52:57.928Z,8.11
2022-09-20T19:55:25.076Z,8.19
2022-09-20T19:57:52.000Z,8.22
2022-09-20T20:00:20.771Z,8.19
2022-09-20T20:02:47.856Z,8.19
2022-09-20T20:05:17.155Z,8.30
2022-09-20T20:07:55.284Z,8.14
2022-09-20T20:10:33.494Z,8.04
2022-09-20T20:13:29.847Z,7.97
2022-09-20T20:16:13.701Z,7.86
2022-09-20T20:19:02.662Z,7.90
2022-09-20T20:21:42.403Z,7.90
2022-09-20T20:24:28.769Z,7.88
2022-09-20T20:26:55.373Z,7.77
2022-09-20T20:29:22.113Z,7.68
2022-09-20T20:31:48.663Z,7.64
2022-09-20T20:34:18.725Z,7.73
2022-09-20T20:36:45.390Z,7.67
2022-09-20T20:39:12.166Z,7.67
2022-09-20T20:41:39.419Z,7.64
2022-09-20T20:44:06.330Z,7.70
2022-09-20T20:46:36.156Z,7.68
2022-09-20T20:49:03.663Z,7.65
2022-09-20T20:51:33.091Z,7.63
2022-09-20T20:53:59.886Z,7.64
2022-09-20T20:56:29.955Z,7.74
2022-09-20T20:59:00.787Z,7.66
2022-09-20T21:01:32.133Z,7.64
2022-09-20T21:03:59.533Z,7.65
2022-09-20T21:06:31.910Z,7.61
2022-09-20T21:08:58.698Z,7.53
2022-09-20T21:11:33.813Z,7.54
2022-09-20T21:14:01.685Z,7.51
2022-09-20T21:16:30.605Z,7.54
2022-09-20T21:18:57.840Z,7.52
2022-09-20T21:21:30.183Z,7.55
2022-09-20T21:24:03.225Z,7.60
2022-09-20T21:26:32.022Z,7.66
2022-09-20T21:29:00.374Z,7.63
2022-09-20T21:31:31.748Z,7.76
2022-09-20T21:33:58.922Z,7.66
2022-09-20T21:36:30.264Z,7.54
2022-09-20T21:38:57.438Z,7.52
2022-09-20T21:41:32.145Z,7.47
2022-09-20T21:44:04.177Z,7.42
2022-09-20T21:46:34.951Z,7.39
2022-09-20T21:49:06.326Z,7.41
2022-09-20T21:51:33.400Z,7.42
2022-09-20T21:54:01.449Z,7.44
2022-09-20T21:56:36.244Z,7.51
2022-09-20T21:59:04.425Z,7.50
2022-09-20T22:01:36.676Z,7.51
2022-09-20T22:04:11.095Z,7.51
2022-09-20T22:06:40.267Z,7.59
2022-09-20T22:09:09.199Z,7.48
2022-09-20T22:11:44.615Z,7.43
2022-09-20T22:14:12.963Z,7.36
2022-09-20T22:16:41.798Z,7.32
2022-09-20T22:19:10.250Z,7.37
2022-09-20T22:21:39.153Z,7.35
2022-09-20T22:24:10.660Z,7.34
2022-09-20T22:26:44.305Z,7.40
2022-09-20T22:29:10.927Z,7.36
2022-09-20T22:31:44.694Z,7.40
2022-09-20T22:34:14.253Z,7.35
2022-09-20T22:36:41.473Z,7.31
2022-09-20T22:39:09.827Z,7.31
2022-09-20T22:41:37.481Z,7.28
2022-09-20T22:44:04.648Z,7.27
2022-09-20T22:46:32.673Z,7.33
2022-09-20T22:48:59.498Z,7.28
2022-09-20T22:51:31.404Z,7.28
2022-09-20T22:53:58.022Z,7.32
2022-09-20T22:56:29.266Z,7.32
2022-09-20T22:59:03.501Z,7.25
2022-09-20T23:01:43.441Z,7.28
2022-09-20T23:04:12.753Z,7.26
2022-09-20T23:06:41.414Z,7.25
2022-09-20T23:09:10.047Z,7.23
2022-09-20T23:11:37.649Z,7.30
2022-09-20T23:14:05.895Z,7.32
2022-09-20T23:16:34.740Z,7.33
2022-09-20T23:19:02.290Z,7.32
2022-09-20T23:21:29.321Z,7.28
2022-09-20T23:23:58.282Z,7.36
2022-09-20T23:26:25.673Z,7.25
2022-09-20T23:28:57.168Z,7.23
2022-09-20T23:31:24.431Z,7.16
2022-09-20T23:33:58.658Z,7.18
2022-09-20T23:36:27.179Z,7.20
2022-09-20T23:38:54.355Z,7.29
2022-09-20T23:41:22.862Z,7.24
2022-09-20T23:43:49.621Z,7.18
2022-09-20T23:46:19.095Z,7.13
2022-09-20T23:48:50.228Z,7.05
2022-09-20T23:51:18.963Z,7.00
2022-09-20T23:53:45.589Z,6.99
2022-09-20T23:56:16.062Z,6.98
2022-09-20T23:58:44.013Z,6.94
